sensor_id;sensor_type;location;lat;lon;timestamp;pressure;altitude;pressure_sealevel;temperature;humidity
4617;BME280;2321;42.704;23.384;2023-06-24T00:01:37;95440.75;;;23.60;100.00
4617;BME280;2321;42.704;23.384;2023-06-24T00:04:04;95460.28;;;23.62;100.00
4617;BME280;2321;42.704;23.384;2023-06-24T00:06:31;95453.22;;;23.56;100.00
4617;BME280;2321;42.704;23.384;2023-06-24T00:08:58;95441.84;;;23.54;100.00
4617;BME280;2321;42.704;23.384;2023-06-24T00:11:29;95449.97;;;23.48;100.00
4617;BME280;2321;42.704;23.384;2023-06-24T00:13:56;95446.19;;;23.39;100.00
4617;BME280;2321;42.704;23.384;2023-06-24T00:16:23;95446.72;;;23.36;100.00
4617;BME280;2321;42.704;23.384;2023-06-24T00:18:53;95449.44;;;23.36;100.00
4617;BME280;2321;42.704;23.384;2023-06-24T00:21:25;95445.38;;;23.33;100.00
4617;BME280;2321;42.704;23.384;2023-06-24T00:23:56;95457.59;;;23.36;100.00
4617;BME280;2321;42.704;23.384;2023-06-24T00:26:23;95446.72;;;23.36;100.00
4617;BME280;2321;42.704;23.384;2023-06-24T00:28:51;95445.09;;;23.35;100.00
4617;BME280;2321;42.704;23.384;2023-06-24T00:31:19;95446.75;;;23.31;100.00
4617;BME280;2321;42.704;23.384;2023-06-24T00:33:46;95453.78;;;23.32;100.00
4617;BME280;2321;42.704;23.384;2023-06-24T00:36:15;95449.72;;;23.18;100.00
4617;BME280;2321;42.704;23.384;2023-06-24T00:38:41;95451.34;;;23.25;100.00
4617;BME280;2321;42.704;23.384;2023-06-24T00:41:09;95450.56;;;23.24;100.00
4617;BME280;2321;42.704;23.384;2023-06-24T00:43:36;95434.78;;;23.16;100.00
4617;BME280;2321;42.704;23.384;2023-06-24T00:46:05;95455.97;;;23.24;100.00
4617;BME280;2321;42.704;23.384;2023-06-24T00:48:33;95451.34;;;23.25;100.00
4617;BME280;2321;42.704;23.384;2023-06-24T00:50:59;95446.75;;;23.20;100.00
4617;BME280;2321;42.704;23.384;2023-06-24T00:53:26;95440.78;;;23.18;100.00
4617;BME280;2321;42.704;23.384;2023-06-24T00:55:55;95438.31;;;23.16;100.00
4617;BME280;2321;42.704;23.384;2023-06-24T00:58:28;95435.59;;;23.16;100.00
4617;BME280;2321;42.704;23.384;2023-06-24T01:00:57;95440.22;;;23.16;100.00
4617;BME280;2321;42.704;23.384;2023-06-24T01:03:25;95433.72;;;23.17;100.00
4617;BME280;2321;42.704;23.384;2023-06-24T01:05:54;95433.72;;;23.12;100.00
4617;BME280;2321;42.704;23.384;2023-06-24T01:08:21;95432.59;;;23.13;100.00
4617;BME280;2321;42.704;23.384;2023-06-24T01:10:49;95432.91;;;23.11;100.00
4617;BME280;2321;42.704;23.384;2023-06-24T01:13:16;95429.38;;;23.11;100.00
4617;BME280;2321;42.704;23.384;2023-06-24T01:15:44;95432.59;;;23.13;100.00
4617;BME280;2321;42.704;23.384;2023-06-24T01:18:16;95422.03;;;23.11;100.00
4617;BME280;2321;42.704;23.384;2023-06-24T01:20:51;95429.91;;;23.07;100.00
4617;BME280;2321;42.704;23.384;2023-06-24T01:23:42;95425.56;;;23.06;100.00
4617;BME280;2321;42.704;23.384;2023-06-24T01:26:22;95417.69;;;23.05;100.00
4617;BME280;2321;42.704;23.384;2023-06-24T01:29:22;95419.59;;;23.04;100.00
4617;BME280;2321;42.704;23.384;2023-06-24T01:32:03;95417.69;;;23.05;100.00
4617;BME280;2321;42.704;23.384;2023-06-24T01:34:37;95423.66;;;23.02;100.00
4617;BME280;2321;42.704;23.384;2023-06-24T01:37:11;95436.44;;;23.01;100.00
4617;BME280;2321;42.704;23.384;2023-06-24T01:39:44;95432.88;;;23.01;100.00
4617;BME280;2321;42.704;23.384;2023-06-24T01:42:14;95432.63;;;23.02;100.00
4617;BME280;2321;42.704;23.384;2023-06-24T01:44:43;95440.22;;;23.00;100.00
4617;BME280;2321;42.704;23.384;2023-06-24T01:47:15;95436.16;;;23.03;100.00
4617;BME280;2321;42.704;23.384;2023-06-24T01:49:45;95442.69;;;23.02;100.00
4617;BME280;2321;42.704;23.384;2023-06-24T01:52:13;95451.09;;;23.05;100.00
4617;BME280;2321;42.704;23.384;2023-06-24T01:54:41;95458.13;;;23.06;100.00
4617;BME280;2321;42.704;23.384;2023-06-24T01:57:10;95453.53;;;23.02;100.00
4617;BME280;2321;42.704;23.384;2023-06-24T01:59:40;95459.78;;;23.07;100.00
4617;BME280;2321;42.704;23.384;2023-06-24T02:02:09;95463.56;;;23.01;100.00
4617;BME280;2321;42.704;23.384;2023-06-24T02:04:38;95467.91;;;22.97;100.00
4617;BME280;2321;42.704;23.384;2023-06-24T02:07:08;95460.31;;;22.89;100.00
4617;BME280;2321;42.704;23.384;2023-06-24T02:09:36;95465.19;;;22.87;100.00
4617;BME280;2321;42.704;23.384;2023-06-24T02:12:05;95470.63;;;22.87;100.00
4617;BME280;2321;42.704;23.384;2023-06-24T02:14:33;95471.44;;;22.92;100.00
4617;BME280;2321;42.704;23.384;2023-06-24T02:17:04;95479.59;;;22.92;100.00
4617;BME280;2321;42.704;23.384;2023-06-24T02:19:32;95458.91;;;22.75;100.00
4617;BME280;2321;42.704;23.384;2023-06-24T02:22:01;95465.13;;;22.66;100.00
4617;BME280;2321;42.704;23.384;2023-06-24T02:24:30;95468.88;;;22.54;100.00
4617;BME280;2321;42.704;23.384;2023-06-24T02:26:57;95465.63;;;22.57;100.00
4617;BME280;2321;42.704;23.384;2023-06-24T02:29:25;95478.41;;;22.62;100.00
4617;BME280;2321;42.704;23.384;2023-06-24T02:31:53;95498.78;;;22.70;100.00
4617;BME280;2321;42.704;23.384;2023-06-24T02:34:20;95502.63;;;22.74;100.00
4617;BME280;2321;42.704;23.384;2023-06-24T02:36:47;95509.13;;;22.73;100.00
4617;BME280;2321;42.704;23.384;2023-06-24T02:39:15;95510.19;;;22.72;100.00
4617;BME280;2321;42.704;23.384;2023-06-24T02:41:42;95525.63;;;22.61;100.00
4617;BME280;2321;42.704;23.384;2023-06-24T02:44:10;95526.69;;;22.49;100.00
4617;BME280;2321;42.704;23.384;2023-06-24T02:46:37;95518.47;;;22.39;100.00
4617;BME280;2321;42.704;23.384;2023-06-24T02:49:07;95514.63;;;22.24;100.00
4617;BME280;2321;42.704;23.384;2023-06-24T02:51:35;95505.59;;;22.03;100.00
4617;BME280;2321;42.704;23.384;2023-06-24T02:54:03;95505.88;;;22.01;100.00
4617;BME280;2321;42.704;23.384;2023-06-24T02:56:32;95507.75;;;22.01;100.00
4617;BME280;2321;42.704;23.384;2023-06-24T02:59:00;95516.50;;;22.13;100.00
4617;BME280;2321;42.704;23.384;2023-06-24T03:01:27;95522.22;;;22.17;100.00
4617;BME280;2321;42.704;23.384;2023-06-24T03:03:54;95528.19;;;22.19;100.00
4617;BME280;2321;42.704;23.384;2023-06-24T03:06:22;95526.50;;;22.07;100.00
4617;BME280;2321;42.704;23.384;2023-06-24T03:08:49;95516.13;;;21.94;100.00
4617;BME280;2321;42.704;23.384;2023-06-24T03:11:16;95520.66;;;21.88;100.00
4617;BME280;2321;42.704;23.384;2023-06-24T03:13:45;95528.78;;;21.88;100.00
4617;BME280;2321;42.704;23.384;2023-06-24T03:16:12;95531.78;;;21.86;100.00
4617;BME280;2321;42.704;23.384;2023-06-24T03:18:40;95536.63;;;21.84;100.00
4617;BME280;2321;42.704;23.384;2023-06-24T03:21:07;95527.44;;;21.85;100.00
4617;BME280;2321;42.704;23.384;2023-06-24T03:23:35;95528.19;;;21.81;100.00
4617;BME280;2321;42.704;23.384;2023-06-24T03:26:02;95526.59;;;21.80;100.00
4617;BME280;2321;42.704;23.384;2023-06-24T03:28:29;95529.84;;;21.82;100.00
4617;BME280;2321;42.704;23.384;2023-06-24T03:30:58;95527.66;;;21.79;100.00
4617;BME280;2321;42.704;23.384;2023-06-24T03:33:25;95533.03;;;21.73;100.00
4617;BME280;2321;42.704;23.384;2023-06-24T03:35:52;95545.56;;;21.80;100.00
4617;BME280;2321;42.704;23.384;2023-06-24T03:38:19;95542.88;;;21.85;100.00
4617;BME280;2321;42.704;23.384;2023-06-24T03:40:46;95542.84;;;21.80;100.00
4617;BME280;2321;42.704;23.384;2023-06-24T03:43:13;95553.75;;;21.90;100.00
4617;BME280;2321;42.704;23.384;2023-06-24T03:45:40;95557.09;;;22.03;100.00
4617;BME280;2321;42.704;23.384;2023-06-24T03:48:08;95561.69;;;22.02;100.00
4617;BME280;2321;42.704;23.384;2023-06-24T03:50:36;95567.94;;;22.03;100.00
4617;BME280;2321;42.704;23.384;2023-06-24T03:53:03;95560.38;;;22.05;100.00
4617;BME280;2321;42.704;23.384;2023-06-24T03:55:30;95551.72;;;22.08;100.00
4617;BME280;2321;42.704;23.384;2023-06-24T03:57:57;95559.06;;;22.13;100.00
4617;BME280;2321;42.704;23.384;2023-06-24T04:00:24;95562.06;;;22.16;100.00
4617;BME280;2321;42.704;23.384;2023-06-24T04:02:51;95555.28;;;22.14;100.00
4617;BME280;2321;42.704;23.384;2023-06-24T04:05:20;95549.06;;;22.24;100.00
4617;BME280;2321;42.704;23.384;2023-06-24T04:07:48;95563.22;;;22.31;100.00
4617;BME280;2321;42.704;23.384;2023-06-24T04:10:17;95559.69;;;22.36;100.00
4617;BME280;2321;42.704;23.384;2023-06-24T04:12:43;95569.50;;;22.42;100.00
4617;BME280;2321;42.704;23.384;2023-06-24T04:15:11;95560.56;;;22.47;100.00
4617;BME280;2321;42.704;23.384;2023-06-24T04:17:38;95554.34;;;22.51;100.00
4617;BME280;2321;42.704;23.384;2023-06-24T04:20:06;95549.22;;;22.60;100.00
4617;BME280;2321;42.704;23.384;2023-06-24T04:22:36;95553.03;;;22.64;100.00
4617;BME280;2321;42.704;23.384;2023-06-24T04:25:03;95555.75;;;22.70;100.00
4617;BME280;2321;42.704;23.384;2023-06-24T04:27:31;95554.19;;;22.74;100.00
4617;BME280;2321;42.704;23.384;2023-06-24T04:29:58;95543.63;;;22.78;100.00
4617;BME280;2321;42.704;23.384;2023-06-24T04:32:25;95552.59;;;22.83;100.00
4617;BME280;2321;42.704;23.384;2023-06-24T04:34:52;95547.72;;;22.91;100.00
4617;BME280;2321;42.704;23.384;2023-06-24T04:37:18;95544.44;;;22.94;100.00
4617;BME280;2321;42.704;23.384;2023-06-24T04:39:47;95552.63;;;22.99;100.00
4617;BME280;2321;42.704;23.384;2023-06-24T04:42:14;95550.19;;;23.03;100.00
4617;BME280;2321;42.704;23.384;2023-06-24T04:44:41;95551.28;;;23.07;100.00
4617;BME280;2321;42.704;23.384;2023-06-24T04:47:08;95565.41;;;23.14;100.00
4617;BME280;2321;42.704;23.384;2023-06-24T04:49:35;95557.25;;;23.20;100.00
4617;BME280;2321;42.704;23.384;2023-06-24T04:52:02;95562.16;;;23.23;100.00
4617;BME280;2321;42.704;23.384;2023-06-24T04:54:29;95563.25;;;23.27;100.00
4617;BME280;2321;42.704;23.384;2023-06-24T04:56:57;95571.13;;;23.34;100.00
4617;BME280;2321;42.704;23.384;2023-06-24T04:59:24;95568.69;;;23.37;100.00
4617;BME280;2321;42.704;23.384;2023-06-24T05:01:51;95562.44;;;23.42;100.00
4617;BME280;2321;42.704;23.384;2023-06-24T05:04:18;95560.25;;;23.44;100.00
4617;BME280;2321;42.704;23.384;2023-06-24T05:06:45;95563.28;;;23.53;100.00
4617;BME280;2321;42.704;23.384;2023-06-24T05:09:12;95559.19;;;23.56;100.00
4617;BME280;2321;42.704;23.384;2023-06-24T05:11:39;95557.31;;;23.56;100.00
4617;BME280;2321;42.704;23.384;2023-06-24T05:14:08;95554.88;;;23.60;100.00
4617;BME280;2321;42.704;23.384;2023-06-24T05:16:35;95558.38;;;23.71;100.00
4617;BME280;2321;42.704;23.384;2023-06-24T05:19:02;95549.13;;;23.77;100.00
4617;BME280;2321;42.704;23.384;2023-06-24T05:21:28;95544.25;;;23.79;100.00
4617;BME280;2321;42.704;23.384;2023-06-24T05:23:55;95543.94;;;23.86;100.00
4617;BME280;2321;42.704;23.384;2023-06-24T05:26:22;95543.69;;;23.93;100.00
4617;BME280;2321;42.704;23.384;2023-06-24T05:28:49;95551.25;;;24.01;100.00
4617;BME280;2321;42.704;23.384;2023-06-24T05:31:17;95550.72;;;24.04;100.00
4617;BME280;2321;42.704;23.384;2023-06-24T05:33:45;95552.09;;;24.07;100.00
4617;BME280;2321;42.704;23.384;2023-06-24T05:36:11;95559.69;;;24.10;100.00
4617;BME280;2321;42.704;23.384;2023-06-24T05:38:38;95559.94;;;24.14;100.00
4617;BME280;2321;42.704;23.384;2023-06-24T05:41:05;95567.53;;;24.17;100.00
4617;BME280;2321;42.704;23.384;2023-06-24T05:43:32;95564.53;;;24.24;100.00
4617;BME280;2321;42.704;23.384;2023-06-24T05:45:59;95567.28;;;24.29;100.00
4617;BME280;2321;42.704;23.384;2023-06-24T05:48:27;95555.56;;;24.34;100.00
4617;BME280;2321;42.704;23.384;2023-06-24T05:50:54;95562.63;;;24.40;100.00
4617;BME280;2321;42.704;23.384;2023-06-24T05:53:21;95550.63;;;24.46;100.00
4617;BME280;2321;42.704;23.384;2023-06-24T05:55:47;95543.81;;;24.49;100.00
4617;BME280;2321;42.704;23.384;2023-06-24T05:58:14;95543.22;;;24.57;100.00
4617;BME280;2321;42.704;23.384;2023-06-24T06:00:41;95544.00;;;24.68;100.00
4617;BME280;2321;42.704;23.384;2023-06-24T06:03:08;95541.78;;;24.76;100.00
4617;BME280;2321;42.704;23.384;2023-06-24T06:05:37;95540.38;;;24.84;100.00
4617;BME280;2321;42.704;23.384;2023-06-24T06:08:04;95539.78;;;24.92;100.00
4617;BME280;2321;42.704;23.384;2023-06-24T06:10:31;95534.03;;;25.04;100.00
4617;BME280;2321;42.704;23.384;2023-06-24T06:12:58;95525.25;;;25.12;100.00
4617;BME280;2321;42.704;23.384;2023-06-24T06:15:25;95535.25;;;25.22;100.00
4617;BME280;2321;42.704;23.384;2023-06-24T06:17:52;95535.72;;;25.35;100.00
4617;BME280;2321;42.704;23.384;2023-06-24T06:20:19;95538.66;;;25.44;100.00
4617;BME280;2321;42.704;23.384;2023-06-24T06:22:47;95540.19;;;25.55;100.00
4617;BME280;2321;42.704;23.384;2023-06-24T06:25:16;95532.19;;;25.64;100.00
4617;BME280;2321;42.704;23.384;2023-06-24T06:27:43;95529.38;;;25.75;100.00
4617;BME280;2321;42.704;23.384;2023-06-24T06:30:11;95533.47;;;25.77;100.00
4617;BME280;2321;42.704;23.384;2023-06-24T06:32:38;95538.53;;;25.89;100.00
4617;BME280;2321;42.704;23.384;2023-06-24T06:35:06;95536.00;;;25.98;100.00
4617;BME280;2321;42.704;23.384;2023-06-24T06:37:33;95537.06;;;26.03;100.00
4617;BME280;2321;42.704;23.384;2023-06-24T06:40:01;95535.59;;;26.10;100.00
4617;BME280;2321;42.704;23.384;2023-06-24T06:42:29;95539.81;;;26.22;100.00
4617;BME280;2321;42.704;23.384;2023-06-24T06:44:55;95540.88;;;26.26;100.00
4617;BME280;2321;42.704;23.384;2023-06-24T06:47:22;95546.22;;;26.37;100.00
4617;BME280;2321;42.704;23.384;2023-06-24T06:49:49;95548.84;;;26.47;100.00
4617;BME280;2321;42.704;23.384;2023-06-24T06:52:16;95553.16;;;26.53;97.69
4617;BME280;2321;42.704;23.384;2023-06-24T06:54:43;95539.97;;;26.61;99.87
4617;BME280;2321;42.704;23.384;2023-06-24T06:57:11;95553.53;;;26.66;98.43
4617;BME280;2321;42.704;23.384;2023-06-24T06:59:38;95546.63;;;26.74;96.71
4617;BME280;2321;42.704;23.384;2023-06-24T07:02:05;95548.47;;;26.79;94.69
4617;BME280;2321;42.704;23.384;2023-06-24T07:04:32;95541.53;;;26.86;98.91
4617;BME280;2321;42.704;23.384;2023-06-24T07:06:59;95545.22;;;26.96;100.00
4617;BME280;2321;42.704;23.384;2023-06-24T07:09:26;95551.88;;;27.09;96.03
4617;BME280;2321;42.704;23.384;2023-06-24T07:11:53;95552.34;;;27.16;90.35
4617;BME280;2321;42.704;23.384;2023-06-24T07:14:21;95550.03;;;27.24;87.82
4617;BME280;2321;42.704;23.384;2023-06-24T07:16:48;95550.84;;;27.24;89.56
4617;BME280;2321;42.704;23.384;2023-06-24T07:19:15;95553.13;;;27.36;89.71
4617;BME280;2321;42.704;23.384;2023-06-24T07:21:42;95560.06;;;27.48;92.20
4617;BME280;2321;42.704;23.384;2023-06-24T07:24:09;95547.56;;;27.61;93.73
4617;BME280;2321;42.704;23.384;2023-06-24T07:26:36;95547.44;;;27.66;91.98
4617;BME280;2321;42.704;23.384;2023-06-24T07:29:05;95545.16;;;27.73;88.94
4617;BME280;2321;42.704;23.384;2023-06-24T07:31:34;95543.66;;;27.81;89.25
4617;BME280;2321;42.704;23.384;2023-06-24T07:34:00;95544.41;;;27.87;88.19
4617;BME280;2321;42.704;23.384;2023-06-24T07:36:27;95544.59;;;27.91;84.64
4617;BME280;2321;42.704;23.384;2023-06-24T07:38:54;95555.38;;;28.01;85.68
4617;BME280;2321;42.704;23.384;2023-06-24T07:41:21;95549.50;;;28.08;85.21
4617;BME280;2321;42.704;23.384;2023-06-24T07:43:48;95539.97;;;28.20;87.07
4617;BME280;2321;42.704;23.384;2023-06-24T07:46:15;95541.28;;;28.22;84.15
4617;BME280;2321;42.704;23.384;2023-06-24T07:48:43;95550.53;;;28.26;85.25
4617;BME280;2321;42.704;23.384;2023-06-24T07:51:10;95548.00;;;28.30;84.69
4617;BME280;2321;42.704;23.384;2023-06-24T07:53:37;95550.84;;;28.39;83.92
4617;BME280;2321;42.704;23.384;2023-06-24T07:56:04;95549.63;;;28.45;80.14
4617;BME280;2321;42.704;23.384;2023-06-24T07:58:31;95546.81;;;28.50;78.40
4617;BME280;2321;42.704;23.384;2023-06-24T08:00:57;95544.78;;;28.56;76.22
4617;BME280;2321;42.704;23.384;2023-06-24T08:03:24;95546.50;;;28.66;80.32
4617;BME280;2321;42.704;23.384;2023-06-24T08:05:52;95549.31;;;28.75;73.68
4617;BME280;2321;42.704;23.384;2023-06-24T08:08:19;95555.91;;;28.74;75.64
4617;BME280;2321;42.704;23.384;2023-06-24T08:10:46;95550.94;;;28.76;76.00
4617;BME280;2321;42.704;23.384;2023-06-24T08:13:13;95552.75;;;28.81;78.86
4617;BME280;2321;42.704;23.384;2023-06-24T08:15:40;95549.41;;;28.84;74.76
4617;BME280;2321;42.704;23.384;2023-06-24T08:18:07;95542.00;;;28.85;72.64
4617;BME280;2321;42.704;23.384;2023-06-24T08:20:33;95539.13;;;28.90;72.63
4617;BME280;2321;42.704;23.384;2023-06-24T08:23:02;95546.00;;;29.01;74.88
4617;BME280;2321;42.704;23.384;2023-06-24T08:25:29;95545.56;;;29.08;75.31
4617;BME280;2321;42.704;23.384;2023-06-24T08:27:56;95547.13;;;29.14;73.26
4617;BME280;2321;42.704;23.384;2023-06-24T08:30:22;95542.13;;;29.17;71.94
4617;BME280;2321;42.704;23.384;2023-06-24T08:32:49;95544.25;;;29.20;68.40
4617;BME280;2321;42.704;23.384;2023-06-24T08:35:16;95534.50;;;29.28;71.71
4617;BME280;2321;42.704;23.384;2023-06-24T08:37:43;95532.09;;;29.35;69.21
4617;BME280;2321;42.704;23.384;2023-06-24T08:40:12;95533.78;;;29.45;70.00
4617;BME280;2321;42.704;23.384;2023-06-24T08:42:39;95526.25;;;29.51;68.49
4617;BME280;2321;42.704;23.384;2023-06-24T08:45:07;95524.50;;;29.55;66.07
4617;BME280;2321;42.704;23.384;2023-06-24T08:47:35;95525.50;;;29.59;68.80
4617;BME280;2321;42.704;23.384;2023-06-24T08:50:03;95522.59;;;29.55;67.00
4617;BME280;2321;42.704;23.384;2023-06-24T08:52:35;95520.53;;;29.61;72.40
4617;BME280;2321;42.704;23.384;2023-06-24T08:55:04;95515.03;;;29.61;67.04
4617;BME280;2321;42.704;23.384;2023-06-24T08:57:34;95510.31;;;29.53;66.05
4617;BME280;2321;42.704;23.384;2023-06-24T09:00:01;95504.81;;;29.53;68.09
4617;BME280;2321;42.704;23.384;2023-06-24T09:02:30;95506.00;;;29.61;68.61
4617;BME280;2321;42.704;23.384;2023-06-24T09:04:58;95510.59;;;29.74;61.55
4617;BME280;2321;42.704;23.384;2023-06-24T09:07:28;95494.06;;;29.88;64.89
4617;BME280;2321;42.704;23.384;2023-06-24T09:09:55;95504.28;;;30.06;62.17
4617;BME280;2321;42.704;23.384;2023-06-24T09:12:24;95504.03;;;30.16;65.07
4617;BME280;2321;42.704;23.384;2023-06-24T09:14:52;95502.09;;;30.17;59.82
4617;BME280;2321;42.704;23.384;2023-06-24T09:17:19;95498.72;;;30.20;62.75
4617;BME280;2321;42.704;23.384;2023-06-24T09:19:48;95498.25;;;30.27;65.21
4617;BME280;2321;42.704;23.384;2023-06-24T09:22:15;95498.09;;;30.32;67.70
4617;BME280;2321;42.704;23.384;2023-06-24T09:24:44;95502.13;;;30.34;63.58
4617;BME280;2321;42.704;23.384;2023-06-24T09:27:12;95504.94;;;30.43;66.80
4617;BME280;2321;42.704;23.384;2023-06-24T09:29:41;95513.69;;;30.54;65.23
4617;BME280;2321;42.704;23.384;2023-06-24T09:32:10;95515.63;;;30.54;59.71
4617;BME280;2321;42.704;23.384;2023-06-24T09:34:37;95503.00;;;30.44;61.34
4617;BME280;2321;42.704;23.384;2023-06-24T09:37:05;95503.03;;;30.53;64.37
4617;BME280;2321;42.704;23.384;2023-06-24T09:39:36;95514.19;;;30.65;66.15
4617;BME280;2321;42.704;23.384;2023-06-24T09:42:04;95514.03;;;30.80;64.42
4617;BME280;2321;42.704;23.384;2023-06-24T09:44:32;95515.38;;;30.91;65.12
4617;BME280;2321;42.704;23.384;2023-06-24T09:46:59;95509.75;;;30.96;61.63
4617;BME280;2321;42.704;23.384;2023-06-24T09:49:28;95513.44;;;31.01;61.20
4617;BME280;2321;42.704;23.384;2023-06-24T09:51:56;95511.84;;;31.08;61.65
4617;BME280;2321;42.704;23.384;2023-06-24T09:54:25;95509.44;;;31.16;61.69
4617;BME280;2321;42.704;23.384;2023-06-24T09:56:53;95505.03;;;31.24;60.68
4617;BME280;2321;42.704;23.384;2023-06-24T09:59:21;95501.97;;;31.34;61.07
4617;BME280;2321;42.704;23.384;2023-06-24T10:01:52;95507.13;;;31.45;58.09
4617;BME280;2321;42.704;23.384;2023-06-24T10:04:20;95496.75;;;31.50;57.88
4617;BME280;2321;42.704;23.384;2023-06-24T10:06:50;95495.63;;;31.60;55.02
4617;BME280;2321;42.704;23.384;2023-06-24T10:09:17;95487.84;;;31.62;58.92
4617;BME280;2321;42.704;23.384;2023-06-24T10:11:45;95488.00;;;31.66;59.02
4617;BME280;2321;42.704;23.384;2023-06-24T10:14:13;95486.69;;;31.72;57.09
4617;BME280;2321;42.704;23.384;2023-06-24T10:16:41;95480.03;;;31.82;58.72
4617;BME280;2321;42.704;23.384;2023-06-24T10:19:08;95478.22;;;31.86;58.71
4617;BME280;2321;42.704;23.384;2023-06-24T10:21:45;95474.97;;;31.93;56.32
4617;BME280;2321;42.704;23.384;2023-06-24T10:24:28;95471.22;;;31.98;56.94
4617;BME280;2321;42.704;23.384;2023-06-24T10:26:55;95455.00;;;32.05;58.25
4617;BME280;2321;42.704;23.384;2023-06-24T10:29:30;95454.31;;;32.17;59.54
4617;BME280;2321;42.704;23.384;2023-06-24T10:32:02;95455.41;;;32.25;59.17
4617;BME280;2321;42.704;23.384;2023-06-24T10:34:34;95444.56;;;32.29;55.69
4617;BME280;2321;42.704;23.384;2023-06-24T10:37:02;95442.72;;;32.33;53.62
4617;BME280;2321;42.704;23.384;2023-06-24T10:39:48;95440.31;;;32.32;51.05
4617;BME280;2321;42.704;23.384;2023-06-24T10:42:37;95428.50;;;32.31;53.96
4617;BME280;2321;42.704;23.384;2023-06-24T10:45:18;95419.72;;;32.38;56.52
4617;BME280;2321;42.704;23.384;2023-06-24T10:47:47;95416.53;;;32.48;54.56
4617;BME280;2321;42.704;23.384;2023-06-24T10:50:15;95408.13;;;32.45;52.92
4617;BME280;2321;42.704;23.384;2023-06-24T10:52:43;95398.81;;;32.58;51.17
4617;BME280;2321;42.704;23.384;2023-06-24T10:55:13;95408.94;;;32.67;52.64
4617;BME280;2321;42.704;23.384;2023-06-24T10:57:40;95400.03;;;32.70;51.50
4617;BME280;2321;42.704;23.384;2023-06-24T11:00:08;95400.78;;;32.79;49.35
4617;BME280;2321;42.704;23.384;2023-06-24T11:02:35;95401.44;;;32.76;45.77
4617;BME280;2321;42.704;23.384;2023-06-24T11:05:04;95403.53;;;32.79;46.55
4617;BME280;2321;42.704;23.384;2023-06-24T11:07:32;95406.06;;;32.84;49.16
4617;BME280;2321;42.704;23.384;2023-06-24T11:10:02;95404.03;;;32.94;48.14
4617;BME280;2321;42.704;23.384;2023-06-24T11:12:32;95392.59;;;33.04;47.06
4617;BME280;2321;42.704;23.384;2023-06-24T11:15:02;95397.16;;;33.00;44.20
4617;BME280;2321;42.704;23.384;2023-06-24T11:17:30;95397.75;;;33.06;43.55
4617;BME280;2321;42.704;23.384;2023-06-24T11:19:57;95387.09;;;33.04;46.74
4617;BME280;2321;42.704;23.384;2023-06-24T11:22:26;95396.31;;;33.09;45.28
4617;BME280;2321;42.704;23.384;2023-06-24T11:24:53;95398.16;;;33.17;48.71
4617;BME280;2321;42.704;23.384;2023-06-24T11:27:24;95395.34;;;33.26;46.90
4617;BME280;2321;42.704;23.384;2023-06-24T11:29:53;95399.38;;;33.41;43.91
4617;BME280;2321;42.704;23.384;2023-06-24T11:32:20;95399.75;;;33.52;43.91
4617;BME280;2321;42.704;23.384;2023-06-24T11:34:47;95402.41;;;33.61;40.24
4617;BME280;2321;42.704;23.384;2023-06-24T11:37:16;95409.44;;;33.71;41.13
4617;BME280;2321;42.704;23.384;2023-06-24T11:39:44;95398.97;;;33.77;40.34
4617;BME280;2321;42.704;23.384;2023-06-24T11:42:13;95393.56;;;33.68;38.93
4617;BME280;2321;42.704;23.384;2023-06-24T11:44:43;95393.22;;;33.69;41.63
4617;BME280;2321;42.704;23.384;2023-06-24T11:47:11;95385.19;;;33.64;42.36
4617;BME280;2321;42.704;23.384;2023-06-24T11:49:51;95384.66;;;33.37;41.37
4617;BME280;2321;42.704;23.384;2023-06-24T11:52:40;95366.78;;;33.22;43.08
4617;BME280;2321;42.704;23.384;2023-06-24T11:55:12;95358.59;;;33.13;44.18
4617;BME280;2321;42.704;23.384;2023-06-24T11:57:53;95361.47;;;33.04;43.86
4617;BME280;2321;42.704;23.384;2023-06-24T12:00:21;95366.78;;;32.88;45.47
4617;BME280;2321;42.704;23.384;2023-06-24T12:02:55;95360.97;;;32.89;45.92
4617;BME280;2321;42.704;23.384;2023-06-24T12:05:24;95357.53;;;32.92;47.10
4617;BME280;2321;42.704;23.384;2023-06-24T12:07:58;95344.88;;;32.91;47.20
4617;BME280;2321;42.704;23.384;2023-06-24T12:10:25;95334.66;;;32.92;47.79
4617;BME280;2321;42.704;23.384;2023-06-24T12:12:52;95326.97;;;32.98;46.50
4617;BME280;2321;42.704;23.384;2023-06-24T12:15:19;95321.25;;;33.03;48.29
4617;BME280;2321;42.704;23.384;2023-06-24T12:17:46;95318.16;;;33.04;46.13
4617;BME280;2321;42.704;23.384;2023-06-24T12:20:15;95320.91;;;33.04;45.81
4617;BME280;2321;42.704;23.384;2023-06-24T12:22:43;95326.16;;;32.97;44.58
4617;BME280;2321;42.704;23.384;2023-06-24T12:25:10;95326.84;;;32.94;45.68
4617;BME280;2321;42.704;23.384;2023-06-24T12:27:38;95325.34;;;32.84;46.37
4617;BME280;2321;42.704;23.384;2023-06-24T12:30:06;95319.13;;;32.75;45.28
4617;BME280;2321;42.704;23.384;2023-06-24T12:32:33;95321.25;;;32.69;45.16
4617;BME280;2321;42.704;23.384;2023-06-24T12:35:00;95316.16;;;32.58;46.21
4617;BME280;2321;42.704;23.384;2023-06-24T12:37:30;95319.78;;;32.50;46.06
4617;BME280;2321;42.704;23.384;2023-06-24T12:39:57;95323.91;;;32.44;45.74
4617;BME280;2321;42.704;23.384;2023-06-24T12:42:24;95330.28;;;32.35;46.22
4617;BME280;2321;42.704;23.384;2023-06-24T12:44:51;95344.72;;;32.32;49.15
4617;BME280;2321;42.704;23.384;2023-06-24T12:47:18;95356.28;;;32.25;47.59
4617;BME280;2321;42.704;23.384;2023-06-24T12:49:45;95358.75;;;32.18;47.43
4617;BME280;2321;42.704;23.384;2023-06-24T12:52:12;95377.88;;;32.14;49.14
4617;BME280;2321;42.704;23.384;2023-06-24T12:54:41;95379.53;;;32.06;49.27
4617;BME280;2321;42.704;23.384;2023-06-24T12:57:08;95389.13;;;32.00;49.22
4617;BME280;2321;42.704;23.384;2023-06-24T12:59:35;95387.38;;;31.95;49.04
4617;BME280;2321;42.704;23.384;2023-06-24T13:02:02;95384.78;;;31.90;48.78
4617;BME280;2321;42.704;23.384;2023-06-24T13:04:29;95373.97;;;31.85;48.65
4617;BME280;2321;42.704;23.384;2023-06-24T13:06:56;95357.66;;;31.80;48.96
4617;BME280;2321;42.704;23.384;2023-06-24T13:09:23;95359.91;;;31.78;50.14
4617;BME280;2321;42.704;23.384;2023-06-24T13:11:51;95346.81;;;31.74;51.84